N658KP UT25-KSEZ
Flight info
| Callsign | N658KP |
|---|---|
| Flight time | 0h 51m |
| Altitude | 10000 |
| Route | NAVJO DCT RHYSS DCT HMFRY DCT FLG |
| Aircraft | C310/L-SDFGR/S |
Departure
| Time | 2026-04-27 22:07 |
|---|---|
| Airport | Monument Valley Airport (UT25) |
Arrival
| Time | 2026-04-27 22:58 |
|---|---|
| Airport | Sedona Airport (KSEZ) |
| Time | Latitude | Longitude | Altitude | Speed | Heading |
|---|---|---|---|---|---|
| 2026-04-27 21:59 | 37.01053 | -110.20172 | 5188 ft | 0 kts | 70° |
| 2026-04-27 22:03 | 37.01056 | -110.20160 | 5187 ft | 0 kts | 70° |
| 2026-04-27 22:05 | 37.01062 | -110.20144 | 5185 ft | 5 kts | 62° |
| 2026-04-27 22:06 | 37.01076 | -110.20134 | 5183 ft | 0 kts | 344° |
| 2026-04-27 22:06 | 37.01078 | -110.20135 | 5183 ft | 3 kts | 345° |
| 2026-04-27 22:06 | 37.01273 | -110.20163 | 5165 ft | 66 kts | 353° |
| 2026-04-27 22:06 | 37.01976 | -110.20247 | 5155 ft | 124 kts | 349° |
| 2026-04-27 22:07 | 37.02918 | -110.20435 | 5442 ft | 140 kts | 345° |
| 2026-04-27 22:07 | 37.03820 | -110.20915 | 5866 ft | 140 kts | 315° |
| 2026-04-27 22:07 | 37.04363 | -110.21938 | 6228 ft | 135 kts | 278° |
| 2026-04-27 22:07 | 37.04249 | -110.23073 | 6568 ft | 128 kts | 234° |
| 2026-04-27 22:08 | 37.03555 | -110.23663 | 6916 ft | 125 kts | 189° |
| 2026-04-27 22:08 | 37.02681 | -110.23555 | 7285 ft | 127 kts | 173° |
| 2026-04-27 22:08 | 37.01807 | -110.23347 | 7652 ft | 127 kts | 173° |
| 2026-04-27 22:08 | 37.00932 | -110.23136 | 8017 ft | 128 kts | 173° |
| 2026-04-27 22:09 | 37.00059 | -110.22926 | 8378 ft | 128 kts | 174° |
| 2026-04-27 22:09 | 36.99188 | -110.22716 | 8735 ft | 129 kts | 174° |
| 2026-04-27 22:09 | 36.98306 | -110.22514 | 9093 ft | 129 kts | 178° |
| 2026-04-27 22:09 | 36.97432 | -110.22477 | 9445 ft | 127 kts | 188° |
| 2026-04-27 22:10 | 36.96551 | -110.22602 | 9805 ft | 127 kts | 194° |
| 2026-04-27 22:10 | 36.95970 | -110.22743 | 9951 ft | 134 kts | 196° |
| 2026-04-27 22:10 | 36.94658 | -110.23170 | 10007 ft | 156 kts | 199° |
| 2026-04-27 22:10 | 36.93592 | -110.23571 | 10006 ft | 166 kts | 200° |
| 2026-04-27 22:11 | 36.92474 | -110.24018 | 10003 ft | 172 kts | 201° |
| 2026-04-27 22:11 | 36.91316 | -110.24496 | 10001 ft | 176 kts | 201° |
| 2026-04-27 22:11 | 36.90149 | -110.24984 | 9999 ft | 179 kts | 201° |
| 2026-04-27 22:11 | 36.88950 | -110.25486 | 9969 ft | 182 kts | 202° |
| 2026-04-27 22:12 | 36.87746 | -110.25996 | 9935 ft | 184 kts | 201° |
| 2026-04-27 22:12 | 36.86530 | -110.26511 | 9928 ft | 184 kts | 201° |
| 2026-04-27 22:12 | 36.85314 | -110.27025 | 9927 ft | 184 kts | 201° |
| 2026-04-27 22:12 | 36.84092 | -110.27541 | 9927 ft | 184 kts | 201° |
| 2026-04-27 22:13 | 36.82879 | -110.28055 | 9927 ft | 184 kts | 202° |
| 2026-04-27 22:13 | 36.81677 | -110.28562 | 9926 ft | 184 kts | 202° |
| 2026-04-27 22:13 | 36.80473 | -110.29071 | 9926 ft | 184 kts | 202° |
| 2026-04-27 22:13 | 36.79258 | -110.29584 | 9926 ft | 184 kts | 202° |
| 2026-04-27 22:14 | 36.78042 | -110.30097 | 9926 ft | 184 kts | 202° |
| 2026-04-27 22:14 | 36.76830 | -110.30608 | 9926 ft | 184 kts | 202° |
| 2026-04-27 22:14 | 36.75612 | -110.31123 | 9926 ft | 183 kts | 202° |
| 2026-04-27 22:14 | 36.74387 | -110.31640 | 9926 ft | 183 kts | 201° |
| 2026-04-27 22:15 | 36.73132 | -110.32169 | 9926 ft | 183 kts | 201° |
| 2026-04-27 22:15 | 36.71905 | -110.32685 | 9926 ft | 184 kts | 201° |
| 2026-04-27 22:15 | 36.70667 | -110.33207 | 9926 ft | 184 kts | 201° |
| 2026-04-27 22:15 | 36.69433 | -110.33727 | 9926 ft | 184 kts | 201° |
| 2026-04-27 22:16 | 36.68176 | -110.34255 | 9926 ft | 183 kts | 201° |
| 2026-04-27 22:16 | 36.66935 | -110.34778 | 9926 ft | 183 kts | 201° |
| 2026-04-27 22:16 | 36.65714 | -110.35291 | 9926 ft | 183 kts | 201° |
| 2026-04-27 22:16 | 36.64487 | -110.35808 | 9916 ft | 184 kts | 201° |
| 2026-04-27 22:17 | 36.63227 | -110.36334 | 9998 ft | 187 kts | 201° |
| 2026-04-27 22:17 | 36.61948 | -110.36875 | 9977 ft | 188 kts | 201° |
| 2026-04-27 22:17 | 36.60667 | -110.37412 | 9933 ft | 188 kts | 201° |
| 2026-04-27 22:17 | 36.59361 | -110.37961 | 9921 ft | 188 kts | 201° |
| 2026-04-27 22:18 | 36.58029 | -110.38520 | 9927 ft | 186 kts | 201° |
| 2026-04-27 22:18 | 36.56730 | -110.39284 | 9927 ft | 184 kts | 219° |
| 2026-04-27 22:18 | 36.55650 | -110.40428 | 9927 ft | 183 kts | 224° |
| 2026-04-27 22:18 | 36.54653 | -110.41644 | 9926 ft | 183 kts | 226° |
| 2026-04-27 22:19 | 36.53690 | -110.42870 | 9927 ft | 182 kts | 226° |
| 2026-04-27 22:19 | 36.52731 | -110.44113 | 9935 ft | 182 kts | 226° |
| 2026-04-27 22:19 | 36.51805 | -110.45327 | 9926 ft | 182 kts | 227° |
| 2026-04-27 22:19 | 36.50927 | -110.46489 | 9924 ft | 182 kts | 227° |
| 2026-04-27 22:20 | 36.50048 | -110.47656 | 9925 ft | 182 kts | 227° |
| 2026-04-27 22:20 | 36.49177 | -110.48815 | 9925 ft | 182 kts | 227° |
| 2026-04-27 22:20 | 36.48299 | -110.49987 | 9925 ft | 181 kts | 227° |
| 2026-04-27 22:20 | 36.47435 | -110.51144 | 9934 ft | 181 kts | 227° |
| 2026-04-27 22:21 | 36.46574 | -110.52292 | 9926 ft | 182 kts | 227° |
| 2026-04-27 22:21 | 36.45697 | -110.53465 | 9952 ft | 181 kts | 227° |
| 2026-04-27 22:21 | 36.44818 | -110.54642 | 9928 ft | 182 kts | 227° |
| 2026-04-27 22:21 | 36.43926 | -110.55838 | 9925 ft | 182 kts | 227° |
| 2026-04-27 22:22 | 36.43048 | -110.57010 | 9925 ft | 182 kts | 227° |
| 2026-04-27 22:22 | 36.42183 | -110.58166 | 9927 ft | 182 kts | 227° |
| 2026-04-27 22:22 | 36.41296 | -110.59352 | 9924 ft | 182 kts | 227° |
| 2026-04-27 22:22 | 36.40398 | -110.60550 | 9973 ft | 182 kts | 227° |
| 2026-04-27 22:23 | 36.39475 | -110.61789 | 9978 ft | 183 kts | 227° |
| 2026-04-27 22:23 | 36.38528 | -110.63055 | 9920 ft | 185 kts | 227° |
| 2026-04-27 22:23 | 36.37576 | -110.64323 | 9971 ft | 183 kts | 227° |
| 2026-04-27 22:23 | 36.36620 | -110.65600 | 9954 ft | 186 kts | 226° |
| 2026-04-27 22:24 | 36.35639 | -110.66908 | 9943 ft | 186 kts | 226° |
| 2026-04-27 22:24 | 36.34664 | -110.68208 | 9925 ft | 185 kts | 227° |
| 2026-04-27 22:24 | 36.33675 | -110.69527 | 9928 ft | 184 kts | 227° |
| 2026-04-27 22:24 | 36.32693 | -110.70837 | 9926 ft | 183 kts | 227° |
| 2026-04-27 22:25 | 36.31699 | -110.72163 | 9942 ft | 183 kts | 227° |
| 2026-04-27 22:25 | 36.30722 | -110.73463 | 9926 ft | 183 kts | 226° |
| 2026-04-27 22:25 | 36.29750 | -110.74759 | 9925 ft | 183 kts | 226° |
| 2026-04-27 22:25 | 36.28782 | -110.76041 | 9926 ft | 183 kts | 227° |
| 2026-04-27 22:26 | 36.27845 | -110.77285 | 9928 ft | 183 kts | 227° |
| 2026-04-27 22:26 | 36.26917 | -110.78522 | 9926 ft | 184 kts | 227° |
| 2026-04-27 22:26 | 36.25997 | -110.79743 | 9926 ft | 184 kts | 227° |
| 2026-04-27 22:26 | 36.25108 | -110.80926 | 9932 ft | 185 kts | 227° |
| 2026-04-27 22:27 | 36.24207 | -110.82129 | 9928 ft | 186 kts | 227° |
| 2026-04-27 22:27 | 36.23291 | -110.83345 | 9929 ft | 187 kts | 227° |
| 2026-04-27 22:27 | 36.22389 | -110.84541 | 9927 ft | 188 kts | 227° |
| 2026-04-27 22:27 | 36.21482 | -110.85744 | 9928 ft | 188 kts | 227° |
| 2026-04-27 22:28 | 36.20589 | -110.86935 | 9952 ft | 189 kts | 227° |
| 2026-04-27 22:28 | 36.19669 | -110.88126 | 9940 ft | 190 kts | 225° |
| 2026-04-27 22:28 | 36.18723 | -110.89256 | 9935 ft | 191 kts | 222° |
| 2026-04-27 22:28 | 36.17692 | -110.90273 | 9939 ft | 190 kts | 219° |
| 2026-04-27 22:29 | 36.16645 | -110.91305 | 9927 ft | 190 kts | 219° |
| 2026-04-27 22:29 | 36.15598 | -110.92349 | 9957 ft | 189 kts | 219° |
| 2026-04-27 22:29 | 36.14581 | -110.93369 | 9938 ft | 190 kts | 219° |
| 2026-04-27 22:29 | 36.13536 | -110.94424 | 9932 ft | 192 kts | 220° |
| 2026-04-27 22:30 | 36.12507 | -110.95465 | 9931 ft | 191 kts | 220° |
| 2026-04-27 22:30 | 36.11486 | -110.96501 | 9927 ft | 190 kts | 220° |
| 2026-04-27 22:30 | 36.10463 | -110.97540 | 9925 ft | 190 kts | 220° |
| 2026-04-27 22:30 | 36.09447 | -110.98573 | 9925 ft | 189 kts | 220° |
| 2026-04-27 22:31 | 36.08434 | -110.99603 | 9937 ft | 188 kts | 220° |
| 2026-04-27 22:31 | 36.07417 | -111.00635 | 9945 ft | 189 kts | 220° |
| 2026-04-27 22:31 | 36.06397 | -111.01675 | 9947 ft | 190 kts | 220° |
| 2026-04-27 22:31 | 36.05365 | -111.02725 | 9954 ft | 191 kts | 220° |
| 2026-04-27 22:32 | 36.04331 | -111.03770 | 9996 ft | 192 kts | 220° |
| 2026-04-27 22:32 | 36.03283 | -111.04818 | 10051 ft | 191 kts | 218° |
| 2026-04-27 22:32 | 36.02156 | -111.05938 | 10064 ft | 191 kts | 219° |
| 2026-04-27 22:32 | 36.01000 | -111.07093 | 10052 ft | 191 kts | 219° |
| 2026-04-27 22:33 | 35.99871 | -111.08227 | 10053 ft | 190 kts | 219° |
| 2026-04-27 22:33 | 35.98718 | -111.09390 | 10053 ft | 190 kts | 220° |
| 2026-04-27 22:33 | 35.97592 | -111.10526 | 10053 ft | 189 kts | 220° |
| 2026-04-27 22:33 | 35.96433 | -111.11699 | 10053 ft | 189 kts | 220° |
| 2026-04-27 22:34 | 35.95291 | -111.12854 | 10053 ft | 189 kts | 220° |
| 2026-04-27 22:34 | 35.94147 | -111.14012 | 10053 ft | 189 kts | 220° |
| 2026-04-27 22:34 | 35.93003 | -111.15171 | 10053 ft | 189 kts | 220° |
| 2026-04-27 22:34 | 35.91860 | -111.16328 | 10052 ft | 189 kts | 220° |
| 2026-04-27 22:35 | 35.90728 | -111.17474 | 10052 ft | 189 kts | 220° |
| 2026-04-27 22:35 | 35.89613 | -111.18601 | 10054 ft | 189 kts | 220° |
| 2026-04-27 22:35 | 35.88499 | -111.19729 | 10055 ft | 189 kts | 220° |
| 2026-04-27 22:35 | 35.87369 | -111.20870 | 10055 ft | 189 kts | 220° |
| 2026-04-27 22:36 | 35.86247 | -111.22004 | 10055 ft | 189 kts | 220° |
| 2026-04-27 22:36 | 35.85128 | -111.23135 | 10055 ft | 189 kts | 220° |
| 2026-04-27 22:36 | 35.83998 | -111.24276 | 10076 ft | 188 kts | 220° |
| 2026-04-27 22:36 | 35.82876 | -111.25409 | 10079 ft | 188 kts | 220° |
| 2026-04-27 22:37 | 35.81758 | -111.26539 | 10057 ft | 188 kts | 220° |
| 2026-04-27 22:37 | 35.80642 | -111.27664 | 10055 ft | 186 kts | 220° |
| 2026-04-27 22:37 | 35.79533 | -111.28783 | 10054 ft | 185 kts | 220° |
| 2026-04-27 22:37 | 35.78414 | -111.29910 | 10054 ft | 185 kts | 220° |
| 2026-04-27 22:38 | 35.77309 | -111.31024 | 10054 ft | 184 kts | 220° |
| 2026-04-27 22:38 | 35.76206 | -111.32135 | 10054 ft | 184 kts | 220° |
| 2026-04-27 22:38 | 35.75095 | -111.33253 | 10054 ft | 184 kts | 220° |
| 2026-04-27 22:38 | 35.73989 | -111.34364 | 10075 ft | 184 kts | 220° |
| 2026-04-27 22:39 | 35.72882 | -111.35477 | 10081 ft | 185 kts | 220° |
| 2026-04-27 22:39 | 35.71767 | -111.36601 | 10082 ft | 185 kts | 220° |
| 2026-04-27 22:39 | 35.70663 | -111.37713 | 10080 ft | 186 kts | 220° |
| 2026-04-27 22:39 | 35.69542 | -111.38839 | 10082 ft | 186 kts | 220° |
| 2026-04-27 22:40 | 35.68417 | -111.39970 | 10081 ft | 187 kts | 220° |
| 2026-04-27 22:40 | 35.67257 | -111.41134 | 10081 ft | 187 kts | 220° |
| 2026-04-27 22:40 | 35.66065 | -111.42331 | 10081 ft | 187 kts | 220° |
| 2026-04-27 22:40 | 35.64878 | -111.43521 | 10081 ft | 187 kts | 220° |
| 2026-04-27 22:41 | 35.63678 | -111.44725 | 10081 ft | 187 kts | 220° |
| 2026-04-27 22:41 | 35.62458 | -111.45949 | 10081 ft | 187 kts | 220° |
| 2026-04-27 22:41 | 35.61323 | -111.47086 | 10081 ft | 187 kts | 220° |
| 2026-04-27 22:41 | 35.60138 | -111.48274 | 10081 ft | 187 kts | 220° |
| 2026-04-27 22:42 | 35.58961 | -111.49442 | 10079 ft | 187 kts | 217° |
| 2026-04-27 22:42 | 35.57706 | -111.50131 | 10079 ft | 188 kts | 204° |
| 2026-04-27 22:42 | 35.56403 | -111.50731 | 10081 ft | 188 kts | 202° |
| 2026-04-27 22:42 | 35.55130 | -111.51288 | 10081 ft | 189 kts | 202° |
| 2026-04-27 22:43 | 35.53828 | -111.51840 | 10081 ft | 189 kts | 201° |
| 2026-04-27 22:43 | 35.52551 | -111.52370 | 10081 ft | 189 kts | 201° |
| 2026-04-27 22:43 | 35.51281 | -111.52891 | 10080 ft | 189 kts | 201° |
| 2026-04-27 22:43 | 35.50021 | -111.53403 | 10080 ft | 189 kts | 201° |
| 2026-04-27 22:44 | 35.48761 | -111.53912 | 10080 ft | 189 kts | 201° |
| 2026-04-27 22:44 | 35.47509 | -111.54415 | 10080 ft | 189 kts | 201° |
| 2026-04-27 22:44 | 35.46241 | -111.54924 | 10080 ft | 189 kts | 201° |
| 2026-04-27 22:44 | 35.44993 | -111.55423 | 10080 ft | 189 kts | 200° |
| 2026-04-27 22:45 | 35.43680 | -111.55948 | 10080 ft | 189 kts | 200° |
| 2026-04-27 22:45 | 35.42363 | -111.56473 | 10080 ft | 189 kts | 200° |
| 2026-04-27 22:45 | 35.41126 | -111.56966 | 10080 ft | 189 kts | 200° |
| 2026-04-27 22:45 | 35.39881 | -111.57463 | 10080 ft | 189 kts | 200° |
| 2026-04-27 22:46 | 35.38626 | -111.57963 | 10080 ft | 189 kts | 200° |
| 2026-04-27 22:46 | 35.37384 | -111.58457 | 10080 ft | 189 kts | 200° |
| 2026-04-27 22:46 | 35.36140 | -111.58952 | 10080 ft | 189 kts | 200° |
| 2026-04-27 22:46 | 35.34884 | -111.59452 | 10080 ft | 189 kts | 200° |
| 2026-04-27 22:47 | 35.33639 | -111.59947 | 10080 ft | 189 kts | 200° |
| 2026-04-27 22:47 | 35.32388 | -111.60445 | 10080 ft | 189 kts | 200° |
| 2026-04-27 22:47 | 35.31139 | -111.60939 | 10080 ft | 189 kts | 200° |
| 2026-04-27 22:47 | 35.29889 | -111.61431 | 10080 ft | 189 kts | 200° |
| 2026-04-27 22:48 | 35.28650 | -111.61918 | 10080 ft | 189 kts | 200° |
| 2026-04-27 22:48 | 35.27389 | -111.62416 | 10080 ft | 189 kts | 200° |
| 2026-04-27 22:48 | 35.26143 | -111.62910 | 10080 ft | 189 kts | 200° |
| 2026-04-27 22:48 | 35.24900 | -111.63402 | 10079 ft | 189 kts | 200° |
| 2026-04-27 22:49 | 35.23660 | -111.63892 | 10082 ft | 187 kts | 201° |
| 2026-04-27 22:49 | 35.22402 | -111.64388 | 10079 ft | 184 kts | 201° |
| 2026-04-27 22:49 | 35.21210 | -111.64861 | 10076 ft | 181 kts | 202° |
| 2026-04-27 22:49 | 35.19998 | -111.65343 | 10080 ft | 180 kts | 201° |
| 2026-04-27 22:50 | 35.18829 | -111.65807 | 10081 ft | 179 kts | 201° |
| 2026-04-27 22:50 | 35.17638 | -111.66278 | 10081 ft | 178 kts | 201° |
| 2026-04-27 22:50 | 35.16467 | -111.66742 | 10081 ft | 178 kts | 201° |
| 2026-04-27 22:50 | 35.15266 | -111.67217 | 10081 ft | 177 kts | 201° |
| 2026-04-27 22:51 | 35.14090 | -111.67683 | 10081 ft | 177 kts | 201° |
| 2026-04-27 22:51 | 35.12916 | -111.68140 | 10081 ft | 177 kts | 201° |
| 2026-04-27 22:51 | 35.11745 | -111.68592 | 10067 ft | 177 kts | 201° |
| 2026-04-27 22:51 | 35.10561 | -111.69051 | 9871 ft | 177 kts | 201° |
| 2026-04-27 22:52 | 35.09404 | -111.69494 | 9696 ft | 176 kts | 201° |
| 2026-04-27 22:52 | 35.08236 | -111.69943 | 9518 ft | 175 kts | 201° |
| 2026-04-27 22:52 | 35.07044 | -111.70253 | 9342 ft | 176 kts | 193° |
| 2026-04-27 22:52 | 35.05832 | -111.70506 | 9162 ft | 176 kts | 193° |
| 2026-04-27 22:53 | 35.04620 | -111.70739 | 8985 ft | 176 kts | 192° |
| 2026-04-27 22:53 | 35.03399 | -111.70906 | 8792 ft | 180 kts | 180° |
| 2026-04-27 22:53 | 35.02154 | -111.70313 | 8619 ft | 186 kts | 162° |
| 2026-04-27 22:53 | 35.00922 | -111.69599 | 8436 ft | 186 kts | 161° |
| 2026-04-27 22:54 | 34.99752 | -111.68916 | 8259 ft | 186 kts | 161° |
| 2026-04-27 22:54 | 34.98533 | -111.68207 | 8073 ft | 186 kts | 162° |
| 2026-04-27 22:54 | 34.97288 | -111.68063 | 7918 ft | 174 kts | 194° |
| 2026-04-27 22:54 | 34.96140 | -111.68526 | 7738 ft | 172 kts | 208° |
| 2026-04-27 22:55 | 34.95114 | -111.69235 | 7559 ft | 167 kts | 213° |
| 2026-04-27 22:55 | 34.94149 | -111.70042 | 7384 ft | 162 kts | 216° |
| 2026-04-27 22:55 | 34.93242 | -111.70855 | 7216 ft | 158 kts | 216° |
| 2026-04-27 22:55 | 34.92365 | -111.71668 | 7045 ft | 156 kts | 217° |
| 2026-04-27 22:56 | 34.91512 | -111.72474 | 6863 ft | 147 kts | 217° |
| 2026-04-27 22:56 | 34.90732 | -111.73180 | 6641 ft | 135 kts | 209° |
| 2026-04-27 22:56 | 34.89919 | -111.73613 | 6404 ft | 121 kts | 198° |
| 2026-04-27 22:56 | 34.89081 | -111.74006 | 6088 ft | 119 kts | 204° |
| 2026-04-27 22:57 | 34.88354 | -111.74630 | 5814 ft | 109 kts | 217° |
| 2026-04-27 22:57 | 34.87769 | -111.75301 | 5597 ft | 99 kts | 219° |
| 2026-04-27 22:57 | 34.87226 | -111.75930 | 5392 ft | 93 kts | 218° |
| 2026-04-27 22:57 | 34.86718 | -111.76530 | 5255 ft | 89 kts | 219° |
| 2026-04-27 22:58 | 34.86241 | -111.77137 | 5096 ft | 91 kts | 220° |
| 2026-04-27 22:58 | 34.85781 | -111.77692 | 4914 ft | 90 kts | 219° |
| 2026-04-27 22:58 | 34.85344 | -111.78244 | 4787 ft | 72 kts | 218° |
| 2026-04-27 22:58 | 34.85065 | -111.78583 | 4769 ft | 31 kts | 216° |
| 2026-04-27 22:59 | 34.85013 | -111.78686 | 4768 ft | 8 kts | 291° |
| 2026-04-27 22:59 | 34.85040 | -111.78732 | 4770 ft | 5 kts | 265° |
| 2026-04-27 22:59 | 34.85016 | -111.78767 | 4770 ft | 5 kts | 223° |
| 2026-04-27 22:59 | 34.84986 | -111.78805 | 4768 ft | 7 kts | 227° |
| 2026-04-27 23:00 | 34.84923 | -111.78933 | 4761 ft | 9 kts | 275° |
| 2026-04-27 23:00 | 34.84909 | -111.78959 | 4760 ft | 0 kts | 216° |
| 2026-04-27 23:00 | 34.84901 | -111.78981 | 4759 ft | 4 kts | 287° |
| 2026-04-27 23:01 | 34.84905 | -111.78986 | 4760 ft | 2 kts | 321° |
| 2026-04-27 23:01 | 34.84909 | -111.78989 | 4760 ft | 0 kts | 322° |
| 2026-04-27 23:01 | 34.84911 | -111.78992 | 4760 ft | 0 kts | 315° |